Time;durP1;ratioP1;P1;durP2;ratioP2;P2;SDS_P1;SDS_P2;PMS_P1;PMS_P2;Temp;Humidity;BMP_temperature;BMP_pressure;BME280_temperature;BME280_humidity;BME280_pressure;Samples;Min_cycle;Max_cycle;Signal;HPM_P1;HPM_P2
2023/11/30 00:01:57;;;;;;;4.53;3.80;;;;;;;6.84;100.00;102251.91;4991502;28;20041;-75
2023/11/30 00:04:23;;;;;;;4.65;3.70;;;;;;;7.01;100.00;102264.97;4974469;28;20041;-74
2023/11/30 00:06:48;;;;;;;4.45;3.75;;;;;;;6.48;100.00;102190.38;4992342;28;20026;-75
2023/11/30 00:09:14;;;;;;;4.68;3.92;;;;;;;7.00;100.00;102259.06;4974585;28;20034;-75
2023/11/30 00:11:39;;;;;;;4.55;3.83;;;;;;;6.96;100.00;102267.38;4974655;28;20036;-75
2023/11/30 00:14:06;;;;;;;4.00;3.35;;;;;;;6.41;100.00;102190.19;4990387;28;20041;-76
2023/11/30 00:16:31;;;;;;;3.83;3.42;;;;;;;6.91;100.00;102273.16;4992415;28;20110;-75
2023/11/30 00:18:58;;;;;;;4.30;3.60;;;;;;;6.89;100.00;102280.69;4991502;28;20144;-76
2023/11/30 00:21:23;;;;;;;4.40;3.60;;;;;;;6.98;100.00;102285.97;4972622;28;20031;-76
2023/11/30 00:23:48;;;;;;;4.35;3.53;;;;;;;6.89;100.00;102287.44;4992089;28;20496;-77
2023/11/30 00:26:15;;;;;;;5.60;4.05;;;;;;;6.26;100.00;102167.09;4974775;28;20053;-76
2023/11/30 00:28:41;;;;;;;4.75;3.95;;;;;;;6.55;100.00;102229.28;4991004;28;20034;-76
2023/11/30 00:31:06;;;;;;;5.18;3.83;;;;;;;6.92;100.00;102298.47;4992435;28;20030;-76
2023/11/30 00:33:32;;;;;;;5.18;3.80;;;;;;;6.25;100.00;102206.66;4991751;28;20034;-76
2023/11/30 00:35:57;;;;;;;3.90;3.47;;;;;;;5.58;100.00;102142.53;4974930;28;20507;-77
2023/11/30 00:38:22;;;;;;;4.45;3.70;;;;;;;6.03;100.00;102214.47;4991541;28;20030;-75
2023/11/30 00:40:48;;;;;;;3.88;3.10;;;;;;;6.62;100.00;102315.41;4991122;28;20030;-75
2023/11/30 00:43:13;;;;;;;3.45;3.10;;;;;;;6.04;100.00;102213.69;4974634;28;20033;-76
2023/11/30 00:45:38;;;;;;;3.53;3.00;;;;;;;6.60;100.00;102299.34;4991203;28;20125;-76
2023/11/30 00:48:04;;;;;;;4.05;3.40;;;;;;;6.07;100.00;102216.25;4991503;28;20030;-76
2023/11/30 00:50:30;;;;;;;3.10;2.60;;;;;;;6.93;100.00;102315.34;4991377;28;20752;-76
2023/11/30 00:52:55;;;;;;;3.65;3.03;;;;;;;6.05;100.00;102187.59;4991375;28;20026;-77
2023/11/30 00:55:21;;;;;;;3.47;2.97;;;;;;;6.72;100.00;102307.22;4981075;28;20108;-76
2023/11/30 00:57:46;;;;;;;4.90;3.17;;;;;;;6.32;100.00;102243.84;4974038;28;20432;-75
2023/11/30 01:00:12;;;;;;;3.92;3.45;;;;;;;6.79;100.00;102329.31;4973898;28;20026;-77
2023/11/30 01:02:40;;;;;;;4.43;3.63;;;;;;;6.26;100.00;102326.22;4990721;28;20034;-76
2023/11/30 01:05:11;;;;;;;4.15;3.47;;;;;;;6.25;100.00;102312.72;4991368;28;20508;-76
2023/11/30 01:07:38;;;;;;;4.68;3.72;;;;;;;5.88;100.00;102246.88;4991532;28;20033;-77
2023/11/30 01:10:04;;;;;;;3.67;3.30;;;;;;;6.27;100.00;102316.16;4973956;28;20022;-76
2023/11/30 01:12:30;;;;;;;4.38;3.75;;;;;;;6.20;100.00;102316.78;4976970;28;20033;-75
2023/11/30 01:14:56;;;;;;;4.18;3.45;;;;;;;6.20;100.00;102323.50;4991051;28;20030;-76
2023/11/30 01:17:22;;;;;;;3.78;3.30;;;;;;;5.91;100.00;102246.97;4973232;28;20065;-76
2023/11/30 01:19:48;;;;;;;5.80;3.60;;;;;;;6.39;100.00;102339.22;4970580;28;20038;-76
2023/11/30 01:22:14;;;;;;;4.47;3.42;;;;;;;6.36;100.00;102343.34;4970729;28;20031;-76
2023/11/30 01:24:39;;;;;;;4.60;3.70;;;;;;;6.04;100.00;102335.69;4970108;28;20037;-76
2023/11/30 01:27:04;;;;;;;4.28;3.70;;;;;;;6.14;100.00;102341.84;4971314;28;20039;-77
2023/11/30 01:29:30;;;;;;;6.45;3.95;;;;;;;5.75;100.00;102292.72;4971412;28;20039;-75
2023/11/30 01:31:56;;;;;;;4.60;3.90;;;;;;;5.73;100.00;102342.28;4971603;28;20391;-74
2023/11/30 01:34:21;;;;;;;7.05;5.30;;;;;;;5.60;100.00;102308.28;4968237;28;20049;-76
2023/11/30 01:36:46;;;;;;;10.93;7.60;;;;;;;5.75;100.00;102325.53;4971351;28;20034;-76
2023/11/30 01:39:14;;;;;;;11.23;8.05;;;;;;;5.72;100.00;102338.06;4970544;28;20037;-73
2023/11/30 01:41:39;;;;;;;11.07;8.80;;;;;;;5.08;100.00;102259.59;4980094;28;20405;-75
2023/11/30 01:44:05;;;;;;;10.93;8.15;;;;;;;5.57;100.00;102342.63;4970938;28;20034;-76
2023/11/30 01:46:31;;;;;;;9.95;8.13;;;;;;;5.38;100.00;102342.91;4968281;28;20542;-76
2023/11/30 01:48:57;;;;;;;9.13;7.32;;;;;;;5.32;100.00;102323.41;4970802;28;20042;-75
2023/11/30 01:51:24;;;;;;;11.98;8.50;;;;;;;4.90;100.00;102320.34;4970910;28;20026;-76
2023/11/30 01:53:51;;;;;;;10.48;7.70;;;;;;;5.05;100.00;102338.50;4969978;28;20041;-77
2023/11/30 01:56:18;;;;;;;9.95;7.65;;;;;;;4.51;100.00;102272.84;4971470;28;20023;-78
2023/11/30 01:58:44;;;;;;;8.18;7.25;;;;;;;4.97;100.00;102357.53;4969888;28;20046;-74
2023/11/30 02:01:09;;;;;;;10.00;7.88;;;;;;;5.05;100.00;102350.25;4969593;28;20031;-76
2023/11/30 02:03:36;;;;;;;9.13;7.35;;;;;;;4.42;100.00;102275.06;4968176;28;20058;-76
2023/11/30 02:06:01;;;;;;;8.40;6.60;;;;;;;4.74;100.00;102345.84;4970832;28;20066;-76
2023/11/30 02:08:26;;;;;;;8.05;6.50;;;;;;;4.93;100.00;102330.53;4971282;28;20169;-76
2023/11/30 02:10:52;;;;;;;9.15;6.93;;;;;;;4.78;100.00;102319.09;4970041;28;20038;-76
2023/11/30 02:13:18;;;;;;;8.00;6.57;;;;;;;4.44;100.00;102366.63;4970010;28;20030;-76
2023/11/30 02:15:43;;;;;;;9.38;7.10;;;;;;;4.15;100.00;102295.09;4969341;28;20035;-76
2023/11/30 02:18:09;;;;;;;8.38;7.10;;;;;;;4.42;100.00;102287.66;4975481;28;20205;-75
2023/11/30 02:20:34;;;;;;;9.48;7.32;;;;;;;4.66;100.00;102369.91;4971720;28;20528;-76
2023/11/30 02:22:59;;;;;;;9.30;7.70;;;;;;;4.31;100.00;102350.22;4989549;28;20109;-77
2023/11/30 02:25:25;;;;;;;8.60;6.93;;;;;;;4.33;100.00;102357.03;4989595;28;20508;-74
2023/11/30 02:27:50;;;;;;;7.82;6.65;;;;;;;4.30;100.00;102356.03;4990327;28;20031;-76
2023/11/30 02:30:16;;;;;;;8.23;6.85;;;;;;;4.55;100.00;102386.34;4989579;28;20042;-76
2023/11/30 02:32:41;;;;;;;9.52;6.88;;;;;;;4.26;100.00;102372.69;4989689;28;20536;-76
2023/11/30 02:35:08;;;;;;;8.60;6.82;;;;;;;4.21;100.00;102375.84;4979520;28;20114;-75
2023/11/30 02:37:33;;;;;;;8.57;6.95;;;;;;;3.68;100.00;102316.00;4972513;28;20037;-75
2023/11/30 02:39:58;;;;;;;9.82;6.60;;;;;;;4.07;100.00;102377.88;4972445;28;20031;-75
2023/11/30 02:42:24;;;;;;;8.68;6.10;;;;;;;3.98;100.00;102374.16;4989123;28;20038;-76
2023/11/30 02:44:49;;;;;;;7.30;6.13;;;;;;;3.51;100.00;102354.72;4990559;28;20030;-75
2023/11/30 02:47:15;;;;;;;8.57;6.20;;;;;;;3.81;100.00;102382.72;4993384;28;20489;-76
2023/11/30 02:49:40;;;;;;;8.52;5.88;;;;;;;3.63;100.00;102345.13;4976337;28;20034;-75
2023/11/30 02:52:06;;;;;;;7.40;6.05;;;;;;;3.71;100.00;102399.09;4993507;28;20030;-75
2023/11/30 02:54:31;;;;;;;9.70;6.60;;;;;;;3.60;100.00;102384.41;4992937;28;20043;-75
2023/11/30 02:56:56;;;;;;;8.65;7.22;;;;;;;3.67;100.00;102383.84;4993271;28;20038;-76
2023/11/30 02:59:23;;;;;;;14.65;10.32;;;;;;;3.71;100.00;102393.22;4975818;28;20031;-76
2023/11/30 03:01:49;;;;;;;10.45;8.32;;;;;;;3.31;100.00;102343.03;4975892;28;20030;-75
2023/11/30 03:04:15;;;;;;;10.18;7.63;;;;;;;3.99;100.00;102434.59;4974877;28;20563;-76
2023/11/30 03:06:41;;;;;;;8.07;7.20;;;;;;;2.87;100.00;102281.00;4993255;28;20038;-76
2023/11/30 03:09:08;;;;;;;7.68;6.63;;;;;;;3.93;100.00;102433.50;4976126;28;20560;-76
2023/11/30 03:11:34;;;;;;;7.75;6.65;;;;;;;3.25;100.00;102383.00;4991945;28;20034;-77
2023/11/30 03:14:00;;;;;;;10.52;7.57;;;;;;;3.82;100.00;102437.28;4975736;28;20054;-76
2023/11/30 03:16:31;;;;;;;8.23;6.80;;;;;;;3.94;100.00;102453.69;4992801;28;20109;-76
2023/11/30 03:18:57;;;;;;;10.13;6.38;;;;;;;3.28;100.00;102368.06;4974615;28;20133;-76
2023/11/30 03:21:22;;;;;;;8.93;5.78;;;;;;;3.78;100.00;102460.59;4976164;28;20456;-75
2023/11/30 03:23:49;;;;;;;9.07;6.55;;;;;;;3.55;100.00;102464.69;4991849;28;20023;-76
2023/11/30 03:26:18;;;;;;;7.50;5.80;;;;;;;3.98;100.00;102475.66;4993243;28;20092;-76
2023/11/30 03:28:44;;;;;;;17.25;9.10;;;;;;;2.83;100.00;102392.16;4974220;28;20034;-76
2023/11/30 03:31:09;;;;;;;14.18;8.25;;;;;;;3.53;100.00;102449.53;4993094;28;20088;-76
2023/11/30 03:33:35;;;;;;;22.77;9.90;;;;;;;3.17;100.00;102424.56;4993156;28;20046;-75
2023/11/30 03:36:00;;;;;;;19.48;11.15;;;;;;;3.73;100.00;102462.03;4992921;28;20034;-76
2023/11/30 03:38:26;;;;;;;16.92;11.25;;;;;;;3.51;100.00;102467.88;4992519;28;20030;-76
2023/11/30 03:40:51;;;;;;;16.98;11.32;;;;;;;3.21;100.00;102393.75;4975640;28;20045;-76
2023/11/30 03:43:17;;;;;;;15.73;10.88;;;;;;;2.92;100.00;102386.66;4973811;28;20038;-76
2023/11/30 03:45:42;;;;;;;15.18;11.23;;;;;;;3.12;100.00;102484.69;4991442;28;20026;-76
2023/11/30 03:48:08;;;;;;;14.85;11.13;;;;;;;3.12;100.00;102385.81;4992627;28;20049;-76
2023/11/30 03:50:33;;;;;;;17.13;12.20;;;;;;;3.33;100.00;102469.63;4992111;28;20030;-76
2023/11/30 03:52:59;;;;;;;18.63;12.88;;;;;;;3.51;100.00;102482.97;4992431;28;20782;-76
2023/11/30 03:55:24;;;;;;;16.63;12.52;;;;;;;3.34;100.00;102477.25;4992485;28;20037;-76
2023/11/30 03:57:50;;;;;;;17.27;12.15;;;;;;;3.17;100.00;102407.81;4991919;28;20030;-77
2023/11/30 04:00:16;;;;;;;14.90;11.32;;;;;;;3.56;100.00;102501.63;4992840;28;20053;-77
2023/11/30 04:02:42;;;;;;;15.57;10.95;;;;;;;3.61;100.00;102476.63;4991609;28;20041;-76
2023/11/30 04:05:10;;;;;;;15.98;11.32;;;;;;;3.58;100.00;102495.00;4974003;28;20034;-79
2023/11/30 04:07:36;;;;;;;22.92;16.88;;;;;;;3.00;100.00;102448.13;4992303;28;20047;-84
2023/11/30 04:10:02;;;;;;;20.50;15.88;;;;;;;3.20;100.00;102450.69;4990044;28;20057;-77
2023/11/30 04:12:28;;;;;;;23.20;17.77;;;;;;;3.17;100.00;102465.63;4990968;28;20027;-78
2023/11/30 04:14:54;;;;;;;28.58;20.38;;;;;;;3.29;100.00;102456.06;4991092;28;20121;-77
2023/11/30 04:17:19;;;;;;;33.75;21.35;;;;;;;3.90;100.00;102473.66;4991722;28;20105;-73
2023/11/30 04:19:45;;;;;;;29.40;20.25;;;;;;;3.35;100.00;102553.50;4991524;28;20088;-75
2023/11/30 04:22:10;;;;;;;22.30;16.00;;;;;;;3.12;100.00;102539.09;4991515;28;20045;-71
2023/11/30 04:24:36;;;;;;;15.75;11.05;;;;;;;3.30;100.00;102540.75;4991927;28;20053;-74
2023/11/30 04:27:01;;;;;;;13.43;11.10;;;;;;;2.99;100.00;102502.50;4991007;28;20034;-75
2023/11/30 04:29:28;;;;;;;13.15;11.10;;;;;;;1.96;100.00;102409.16;4990946;28;20041;-72
2023/11/30 04:31:53;;;;;;;12.68;10.27;;;;;;;3.02;100.00;102568.00;4975669;28;21467;-75
2023/11/30 04:34:19;;;;;;;12.07;9.88;;;;;;;2.74;100.00;102518.97;4990128;28;20038;-74
2023/11/30 04:36:44;;;;;;;13.43;10.68;;;;;;;3.01;100.00;102595.56;4990565;28;20421;-77
2023/11/30 04:39:14;;;;;;;12.00;9.32;;;;;;;2.50;100.00;102524.59;4991290;28;20022;-80
2023/11/30 04:41:39;;;;;;;10.68;8.30;;;;;;;3.10;100.00;102609.41;4991020;28;20037;-80
2023/11/30 04:44:04;;;;;;;10.25;7.80;;;;;;;3.35;100.00;102626.41;4991352;28;20026;-75
2023/11/30 04:46:30;;;;;;;10.88;8.35;;;;;;;3.32;100.00;102579.38;4991226;28;20060;-77
2023/11/30 04:48:58;;;;;;;10.85;8.25;;;;;;;3.06;100.00;102597.47;4990843;28;20045;-76
2023/11/30 04:51:24;;;;;;;9.50;8.02;;;;;;;3.26;100.00;102636.94;4991643;28;20045;-78
2023/11/30 04:53:49;;;;;;;14.80;12.23;;;;;;;3.59;100.00;102664.31;4973978;28;20038;-77
2023/11/30 04:56:15;;;;;;;11.73;9.52;;;;;;;3.25;100.00;102596.63;4973207;28;20030;-78
2023/11/30 04:58:40;;;;;;;9.88;8.00;;;;;;;3.49;100.00;102673.13;4990575;28;20038;-77
2023/11/30 05:01:06;;;;;;;10.10;8.32;;;;;;;2.93;100.00;102541.59;4990270;28;20031;-79
2023/11/30 05:03:32;;;;;;;11.85;8.60;;;;;;;3.08;100.00;102603.44;4990668;28;20084;-76
2023/11/30 05:05:57;;;;;;;11.57;9.00;;;;;;;3.00;100.00;102602.25;4989555;28;20548;-76
2023/11/30 05:08:23;;;;;;;12.20;9.82;;;;;;;2.95;100.00;102606.19;4989627;28;20048;-76
2023/11/30 05:10:48;;;;;;;13.57;9.60;;;;;;;3.34;100.00;102677.47;4989488;28;20042;-76
2023/11/30 05:13:14;;;;;;;14.65;10.02;;;;;;;3.45;100.00;102683.84;4989733;28;20100;-78
2023/11/30 05:15:39;;;;;;;13.43;9.90;;;;;;;3.46;100.00;102714.09;4988838;28;20034;-76
2023/11/30 05:18:05;;;;;;;14.02;9.70;;;;;;;3.16;100.00;102646.50;4989308;28;20050;-84
2023/11/30 05:20:31;;;;;;;15.50;9.52;;;;;;;3.29;100.00;102654.66;4990201;28;20031;-76
2023/11/30 05:22:56;;;;;;;17.42;10.40;;;;;;;2.77;100.00;102614.53;4971968;28;20108;-78
2023/11/30 05:25:22;;;;;;;16.92;10.38;;;;;;;3.42;100.00;102734.00;4988234;28;20046;-74
2023/11/30 05:27:47;;;;;;;17.98;10.50;;;;;;;3.51;100.00;102757.03;4989263;28;20030;-75
2023/11/30 05:30:13;;;;;;;15.90;10.88;;;;;;;3.46;100.00;102725.81;4987704;28;20429;-77
2023/11/30 05:32:38;;;;;;;18.73;12.50;;;;;;;3.52;100.00;102778.88;4988782;28;20022;-76
2023/11/30 05:35:05;;;;;;;18.13;12.43;;;;;;;3.96;100.00;102788.44;4989786;28;20038;-78
2023/11/30 05:37:31;;;;;;;19.27;12.05;;;;;;;3.18;100.00;102738.78;4988317;28;20027;-77
2023/11/30 05:39:56;;;;;;;18.35;12.05;;;;;;;3.23;100.00;102676.13;4988186;28;20031;-75
2023/11/30 05:42:22;;;;;;;15.00;10.88;;;;;;;3.93;100.00;102831.94;4970945;28;20034;-75
2023/11/30 05:44:47;;;;;;;16.02;11.82;;;;;;;4.03;100.00;102835.72;4988127;28;20034;-75
2023/11/30 05:47:13;;;;;;;17.58;12.10;;;;;;;3.58;100.00;102774.13;4971426;28;20031;-75
2023/11/30 05:49:38;;;;;;;19.27;13.95;;;;;;;3.76;100.00;102742.28;4988166;28;20066;-73
2023/11/30 05:52:04;;;;;;;21.58;15.60;;;;;;;2.93;100.00;102725.81;4971016;28;20045;-74
2023/11/30 05:54:29;;;;;;;21.00;15.82;;;;;;;3.96;100.00;102846.31;4988289;28;20512;-74
2023/11/30 05:56:55;;;;;;;20.30;15.25;;;;;;;3.76;100.00;102854.59;4987836;28;20034;-74
2023/11/30 05:59:20;;;;;;;19.13;14.13;;;;;;;4.01;100.00;102875.91;4987427;28;20517;-74
2023/11/30 06:01:46;;;;;;;21.40;15.80;;;;;;;3.65;100.00;102802.94;4979005;28;20034;-74
2023/11/30 06:04:11;;;;;;;28.23;19.55;;;;;;;4.20;100.00;102900.25;4970653;28;20500;-74
2023/11/30 06:06:37;;;;;;;32.28;20.00;;;;;;;4.64;100.00;102832.53;4987206;28;20038;-73
2023/11/30 06:09:03;;;;;;;30.15;20.25;;;;;;;7.05;100.00;103060.94;4986952;28;20041;-72
2023/11/30 06:11:28;;;;;;;31.50;20.50;;;;;;;9.21;100.00;103240.53;4969849;28;20050;-73
2023/11/30 06:13:54;;;;;;;33.97;21.88;;;;;;;10.48;100.00;103319.59;4987475;28;20145;-74
2023/11/30 06:16:20;;;;;;;35.25;26.73;;;;;;;11.51;100.00;103373.09;4987688;28;20026;-74
2023/11/30 06:18:45;;;;;;;65.07;45.05;;;;;;;11.66;100.00;103350.56;4987597;28;20085;-74
2023/11/30 06:21:14;;;;;;;67.00;43.22;;;;;;;11.16;100.00;103241.50;4987683;28;20038;-73
2023/11/30 06:23:39;;;;;;;65.90;44.60;;;;;;;11.75;100.00;103230.06;4986659;28;20566;-72
2023/11/30 06:26:06;;;;;;;65.72;45.88;;;;;;;12.54;100.00;103212.78;4988334;28;20026;-74
2023/11/30 06:28:32;;;;;;;41.00;28.92;;;;;;;9.93;100.00;103062.19;4970096;28;20131;-73
2023/11/30 06:30:57;;;;;;;37.63;26.38;;;;;;;11.78;100.00;103121.38;4971634;28;20048;-72
2023/11/30 06:33:22;;;;;;;39.67;27.58;;;;;;;12.51;100.00;103136.19;4989009;28;20110;-73
2023/11/30 06:35:48;;;;;;;33.42;23.58;;;;;;;11.08;100.00;103013.88;4972147;28;20456;-74
2023/11/30 06:38:13;;;;;;;30.70;21.95;;;;;;;13.16;100.00;103083.47;4989175;28;20052;-73
2023/11/30 06:40:39;;;;;;;25.55;18.90;;;;;;;14.52;100.00;103089.78;4988707;28;20311;-72
2023/11/30 06:43:05;;;;;;;22.35;17.40;;;;;;;14.80;100.00;103026.78;4972104;28;20517;-73
2023/11/30 06:45:31;;;;;;;18.60;13.75;;;;;;;12.15;100.00;102898.38;4971205;28;20046;-72
2023/11/30 06:47:57;;;;;;;19.77;14.02;;;;;;;14.46;100.00;102923.38;4971468;28;20113;-73
2023/11/30 06:50:22;;;;;;;24.48;18.15;;;;;;;12.70;100.00;102838.59;4987359;28;20034;-72
2023/11/30 06:52:49;;;;;;;31.73;24.55;;;;;;;12.66;100.00;102722.00;4971485;28;20030;-73
2023/11/30 06:55:16;;;;;;;27.30;22.65;;;;;;;11.96;100.00;102723.88;4988637;28;20046;-72
2023/11/30 06:57:42;;;;;;;36.55;24.88;;;;;;;8.90;100.00;102712.66;4986775;28;20037;-73
2023/11/30 07:00:11;;;;;;;29.90;23.92;;;;;;;6.76;100.00;102576.97;4988131;28;20038;-73
2023/11/30 07:02:36;;;;;;;31.05;24.15;;;;;;;7.16;100.00;102664.13;4971078;28;20397;-73
2023/11/30 07:05:05;;;;;;;25.20;20.05;;;;;;;7.42;100.00;102653.94;4986345;28;20038;-73
2023/11/30 07:07:33;;;;;;;17.00;14.48;;;;;;;7.08;100.00;102650.38;4970565;28;20037;-75
2023/11/30 07:09:59;;;;;;;13.32;11.93;;;;;;;6.69;100.00;102569.16;4965866;28;20061;-74
2023/11/30 07:12:25;;;;;;;31.38;20.60;;;;;;;6.93;100.00;102640.69;4986618;28;20089;-74
2023/11/30 07:14:50;;;;;;;26.60;16.55;;;;;;;5.94;100.00;102534.84;4988155;28;20034;-72
2023/11/30 07:17:16;;;;;;;22.13;14.38;;;;;;;6.58;100.00;102661.47;4988491;28;20030;-73
2023/11/30 07:19:41;;;;;;;18.15;12.85;;;;;;;6.87;100.00;102645.56;4987805;28;20049;-72
2023/11/30 07:22:07;;;;;;;13.63;11.07;;;;;;;7.10;100.00;102629.38;4988221;28;20035;-73
2023/11/30 07:24:32;;;;;;;11.52;9.75;;;;;;;6.90;100.00;102646.50;4987907;28;20117;-72
2023/11/30 07:26:58;;;;;;;10.55;8.23;;;;;;;6.84;100.00;102646.31;4988295;28;20034;-73
2023/11/30 07:29:23;;;;;;;8.63;7.10;;;;;;;6.72;100.00;102657.72;4970338;28;20050;-73
2023/11/30 07:31:50;;;;;;;9.95;7.72;;;;;;;6.18;100.00;102587.78;4988563;28;20416;-72
2023/11/30 07:34:16;;;;;;;9.43;8.40;;;;;;;6.21;100.00;102582.81;4991832;28;20026;-72
2023/11/30 07:36:41;;;;;;;8.43;7.57;;;;;;;7.03;100.00;102668.81;4973751;28;20053;-72
2023/11/30 07:39:07;;;;;;;8.77;7.63;;;;;;;6.96;100.00;102689.69;4974124;28;20042;-73
2023/11/30 07:41:32;;;;;;;9.18;7.68;;;;;;;7.28;100.00;102693.16;4973653;28;20045;-74
2023/11/30 07:43:57;;;;;;;9.73;7.85;;;;;;;6.53;100.00;102622.59;4991486;28;20105;-73
2023/11/30 07:46:23;;;;;;;9.82;7.57;;;;;;;6.57;100.00;102594.06;4992017;28;20032;-74
2023/11/30 07:48:48;;;;;;;9.23;8.00;;;;;;;6.91;100.00;102622.91;4991384;28;20081;-73
2023/11/30 07:51:14;;;;;;;9.65;7.53;;;;;;;6.97;100.00;102691.38;4990891;28;20042;-73
2023/11/30 07:53:39;;;;;;;8.90;7.43;;;;;;;6.64;100.00;102692.00;4992100;28;20038;-73
2023/11/30 07:56:05;;;;;;;8.13;7.22;;;;;;;6.96;100.00;102691.34;4991733;28;20030;-73
2023/11/30 07:58:31;;;;;;;8.07;6.78;;;;;;;6.59;100.00;102699.47;4973149;28;20045;-74
2023/11/30 08:00:59;;;;;;;8.88;7.18;;;;;;;6.69;100.00;102625.66;4973694;28;20030;-72
2023/11/30 08:03:25;;;;;;;9.07;7.88;;;;;;;6.99;100.00;102696.50;4991297;28;20027;-73
2023/11/30 08:05:50;;;;;;;13.43;10.10;;;;;;;7.15;100.00;102687.72;4991156;28;20084;-73
2023/11/30 08:08:16;;;;;;;20.25;14.05;;;;;;;6.60;100.00;102625.34;4991354;28;20038;-72
2023/11/30 08:10:41;;;;;;;13.52;9.73;;;;;;;7.32;100.00;102694.13;4973832;28;20512;-74
2023/11/30 08:13:06;;;;;;;19.38;13.93;;;;;;;6.98;100.00;102688.06;4973566;28;20038;-72
2023/11/30 08:15:32;;;;;;;20.88;14.40;;;;;;;6.50;100.00;102617.41;4973266;28;20034;-73
2023/11/30 08:17:57;;;;;;;17.08;12.43;;;;;;;7.20;100.00;102691.22;4973857;28;20050;-72
2023/11/30 08:20:23;;;;;;;10.23;7.43;;;;;;;6.88;100.00;102620.31;4990255;28;20034;-73
2023/11/30 08:22:48;;;;;;;11.30;8.50;;;;;;;7.03;100.00;102682.28;4973544;28;20041;-74
2023/11/30 08:25:15;;;;;;;6.88;5.80;;;;;;;7.25;100.00;102697.28;4990423;28;20029;-72
2023/11/30 08:27:41;;;;;;;8.50;6.30;;;;;;;7.21;100.00;102698.00;4990945;28;20030;-73
2023/11/30 08:30:09;;;;;;;9.60;6.93;;;;;;;6.83;100.00;102643.75;4990645;28;20046;-73
2023/11/30 08:32:37;;;;;;;10.27;7.20;;;;;;;6.32;100.00;102577.28;4990584;28;20382;-72
2023/11/30 08:35:03;;;;;;;12.25;8.77;;;;;;;6.96;100.00;102631.53;4990662;28;20030;-72
2023/11/30 08:37:28;;;;;;;9.73;7.63;;;;;;;7.64;100.00;102694.22;4989646;28;20038;-73
2023/11/30 08:39:54;;;;;;;11.90;9.00;;;;;;;7.06;100.00;102627.59;4973170;28;20041;-73
2023/11/30 08:42:21;;;;;;;9.57;7.20;;;;;;;7.40;100.00;102634.47;4973084;28;20527;-72
2023/11/30 08:44:47;;;;;;;8.23;6.05;;;;;;;7.11;100.00;102627.72;4973147;28;20034;-73
2023/11/30 08:47:13;;;;;;;7.60;6.60;;;;;;;7.19;100.00;102656.63;4988005;28;20780;-73
2023/11/30 08:49:39;;;;;;;8.93;6.53;;;;;;;7.17;100.00;102595.84;4972913;28;20456;-73
2023/11/30 08:52:04;;;;;;;8.50;6.40;;;;;;;7.47;100.00;102626.19;4990068;28;20026;-72
2023/11/30 08:54:30;;;;;;;8.32;6.00;;;;;;;7.66;100.00;102679.94;4989258;28;20503;-72
2023/11/30 08:56:56;;;;;;;8.50;6.90;;;;;;;7.76;100.00;102664.16;4990962;28;20033;-72
2023/11/30 08:59:22;;;;;;;8.20;6.78;;;;;;;7.76;100.00;102661.63;4972622;28;20497;-72
2023/11/30 09:01:48;;;;;;;6.95;5.93;;;;;;;7.74;100.00;102668.31;4972856;28;20037;-72
2023/11/30 09:04:14;;;;;;;7.95;6.15;;;;;;;7.81;100.00;102685.41;4972529;28;20026;-72
2023/11/30 09:06:39;;;;;;;7.97;5.85;;;;;;;8.08;100.00;102692.03;4988356;28;20037;-72
2023/11/30 09:09:04;;;;;;;7.30;5.97;;;;;;;7.53;100.00;102624.72;4972545;28;20421;-73
2023/11/30 09:11:30;;;;;;;7.40;6.03;;;;;;;7.73;100.00;102676.75;4989656;28;20022;-72
2023/11/30 09:13:57;;;;;;;7.80;6.07;;;;;;;8.04;100.00;102663.22;4989195;28;20041;-74
2023/11/30 09:16:22;;;;;;;6.57;5.28;;;;;;;8.26;100.00;102629.19;4989786;28;20042;-73
2023/11/30 09:18:47;;;;;;;8.25;6.40;;;;;;;8.22;100.00;102633.25;4989611;28;20047;-72
2023/11/30 09:21:13;;;;;;;5.85;4.72;;;;;;;7.64;100.00;102587.91;4972083;28;20040;-73
2023/11/30 09:23:39;;;;;;;6.95;5.20;;;;;;;8.07;100.00;102601.63;4989812;28;20500;-73
2023/11/30 09:26:06;;;;;;;7.45;5.78;;;;;;;8.34;100.00;102658.94;4972600;28;20030;-72
2023/11/30 09:28:32;;;;;;;5.85;4.43;;;;;;;8.43;100.00;102640.56;4971245;28;20030;-73
2023/11/30 09:31:01;;;;;;;9.13;5.10;;;;;;;8.15;100.00;102590.88;4989662;28;20509;-73
2023/11/30 09:33:28;;;;;;;6.43;5.40;;;;;;;8.37;100.00;102580.44;4972044;28;20030;-73
2023/11/30 09:35:54;;;;;;;5.60;3.47;;;;;;;8.49;100.00;102612.81;4972827;28;20462;-73
2023/11/30 09:38:19;;;;;;;6.88;4.72;;;;;;;8.56;100.00;102640.88;4989641;28;20037;-73
2023/11/30 09:40:45;;;;;;;8.43;5.78;;;;;;;8.77;100.00;102619.38;4989515;28;20027;-73
2023/11/30 09:43:15;;;;;;;11.68;8.05;;;;;;;8.89;100.00;102546.94;4989718;28;20105;-74
2023/11/30 09:45:42;;;;;;;15.18;11.88;;;;;;;8.69;100.00;102532.97;4989359;28;20030;-74
2023/11/30 09:48:08;;;;;;;9.75;7.30;;;;;;;8.64;100.00;102479.63;4972133;28;20564;-73
2023/11/30 09:50:33;;;;;;;6.68;5.47;;;;;;;8.80;100.00;102553.47;4989950;28;20137;-73
2023/11/30 09:52:59;;;;;;;5.57;4.60;;;;;;;8.66;100.00;102545.59;4972083;28;20084;-72
2023/11/30 09:55:26;;;;;;;6.50;5.53;;;;;;;8.97;100.00;102559.78;4988720;28;20104;-73
2023/11/30 09:57:51;;;;;;;5.72;4.55;;;;;;;8.39;100.00;102490.09;4989323;28;21638;-74
2023/11/30 10:00:17;;;;;;;6.20;5.47;;;;;;;9.20;100.00;102586.44;4971668;28;20117;-72
2023/11/30 10:02:57;;;;;;;9.25;6.90;;;;;;;9.09;100.00;102516.88;4989268;28;20097;-73
2023/11/30 10:05:25;;;;;;;5.85;4.65;;;;;;;9.29;100.00;102571.41;4989412;28;20117;-74
2023/11/30 10:07:52;;;;;;;5.45;4.80;;;;;;;9.32;100.00;102563.84;4972123;28;20420;-74
2023/11/30 10:10:22;;;;;;;6.97;5.38;;;;;;;9.40;100.00;102453.13;4758190;28;10001142;-72
2023/11/30 10:12:47;;;;;;;6.15;5.55;;;;;;;9.57;100.00;102513.53;4961454;28;20251;-71
2023/11/30 10:15:12;;;;;;;7.32;5.88;;;;;;;9.83;100.00;102549.53;4986737;28;20041;-74
2023/11/30 10:17:38;;;;;;;6.90;5.80;;;;;;;9.73;100.00;102483.28;4987000;28;20415;-74
2023/11/30 10:20:05;;;;;;;6.95;5.22;;;;;;;10.21;100.00;102500.19;4969758;28;20033;-74
2023/11/30 10:22:31;;;;;;;5.93;5.32;;;;;;;9.72;100.00;102561.19;4988449;28;20157;-73
2023/11/30 10:24:57;;;;;;;6.72;6.00;;;;;;;9.88;100.00;102550.47;4987846;28;20034;-76
2023/11/30 10:27:24;;;;;;;6.40;5.35;;;;;;;9.56;100.00;102483.03;4986808;28;20080;-74
2023/11/30 10:29:51;;;;;;;5.80;5.20;;;;;;;9.57;100.00;102541.47;4969616;28;20037;-73
2023/11/30 10:32:17;;;;;;;6.50;5.47;;;;;;;9.99;100.00;102528.63;4971487;28;20045;-75
2023/11/30 10:34:46;;;;;;;5.80;5.20;;;;;;;9.85;100.00;102460.63;4988338;28;20045;-72
2023/11/30 10:37:20;;;;;;;5.40;4.70;;;;;;;10.00;100.00;102504.91;4967616;28;20030;-74
2023/11/30 10:40:00;;;;;;;5.00;4.18;;;;;;;9.86;100.00;102516.56;4969286;28;20043;-74
2023/11/30 10:42:27;;;;;;;5.40;4.47;;;;;;;9.63;100.00;102518.72;4968538;28;20030;-74
2023/11/30 10:44:58;;;;;;;9.00;5.88;;;;;;;9.63;100.00;102538.16;4987465;28;20030;-77
2023/11/30 10:47:24;;;;;;;7.38;5.60;;;;;;;8.91;100.00;102393.06;4971529;28;20096;-76
2023/11/30 10:49:51;;;;;;;6.88;4.90;;;;;;;10.04;100.00;102503.28;4988950;28;20034;-74
2023/11/30 10:52:19;;;;;;;13.02;8.98;;;;;;;9.49;100.00;102426.19;4987267;28;20038;-75
2023/11/30 10:54:56;;;;;;;8.93;7.15;;;;;;;10.31;100.00;102501.16;4989213;28;20032;-75
2023/11/30 10:57:22;;;;;;;8.48;5.35;;;;;;;9.38;100.00;102379.50;4987890;28;20036;-74
2023/11/30 10:59:50;;;;;;;4.60;3.60;;;;;;;10.47;100.00;102472.56;4988716;28;20113;-75
2023/11/30 11:02:16;;;;;;;5.28;3.67;;;;;;;10.19;100.00;102476.41;4977632;28;20062;-74
2023/11/30 11:04:42;;;;;;;5.63;4.90;;;;;;;10.37;100.00;102456.34;4988876;28;20050;-75
2023/11/30 11:07:12;;;;;;;4.80;3.30;;;;;;;10.18;100.00;102461.97;4991689;28;20030;-74
2023/11/30 11:09:50;;;;;;;4.85;3.33;;;;;;;10.50;100.00;102436.97;4991913;28;20552;-75
2023/11/30 11:12:26;;;;;;;5.00;3.53;;;;;;;10.78;100.00;102392.34;4975279;28;20038;-76
2023/11/30 11:15:08;;;;;;;4.85;2.80;;;;;;;10.36;100.00;102350.34;4991342;28;20053;-74